Pagrindinis puslapis
METAR-TAF:

METAR-TAF

Oro uostai :

Tartu, Estija

platuma: 58-18N, ilguma: 026-44E, Aukštis: 59 m

Dabartinis oras

Ataskaita buvo paskelbta 13 minutes, ne 10:20 UTC
Vėjas 8 kt iš Pietryčių
Temperatūra -4°C
Drėgmė 93%
Slėgis 1006 hPa
Matomumas: 2500 m
Su prošvaistėmis ne aukštis 900 ft
Apsiniaukę ne aukštis 1600 ft
sniegas

METAR: EETU 071020Z 13008KT 2500 SN BKN009 OVC016 M04/M05 Q1006

Laikas: 12:33 (10:33 UTC)


TAF: trūkstamas

Orai ataskaitas ir orų prognozės (METAR, TAF).

turimą stotys yra geltonos ir raudonos taškus žemėlapyje.

Perkelti pele per norėdami pamatyti stoties vardą.

Tada spustelėkite, norėdami matyti oro stebėjimo ir prognozės.

Norėdami pakeisti žemėlapį: spustelėkite ant žalios mygtukų su juodo kryžiaus žemyn,; žalią mygtuką su brūkšneliu, jei norite nutolinti; arba žalių rodyklių gretimoms žemėlapius.


METAR-TAF: